Time,TemperatureF,DewpointF,PressureIn,WindDirection,WindDirectionDegrees,WindSpeedMPH,WindSpeedGustMPH,Humidity,HourlyPrecipIn,Conditions,Clouds,dailyrainin,SoftwareType,DateUTC
2013-03-10 00:00:00,55.2,55.2,29.78,SW,229,6.3,6.3,100,0.39,,,0.43,VWS V13.01,2013-03-10 06:00:00,
2013-03-10 00:05:00,55.2,55.2,29.78,SW,226,4.0,5.8,100,0.47,,,0.04,VWS V13.01,2013-03-10 06:05:00,
2013-03-10 00:10:00,55.2,55.2,29.78,SSW,211,4.0,4.0,100,0.55,,,0.12,VWS V13.01,2013-03-10 06:10:00,
2013-03-10 00:15:00,55.2,55.2,29.78,SW,222,4.9,5.4,100,0.63,,,0.20,VWS V13.01,2013-03-10 06:15:00,
2013-03-10 00:20:00,55.4,55.4,29.78,WSW,239,4.9,6.3,100,0.67,,,0.24,VWS V13.01,2013-03-10 06:20:00,
2013-03-10 00:25:00,55.4,55.4,29.78,SSW,209,5.8,5.8,100,0.71,,,0.28,VWS V13.01,2013-03-10 06:25:00,
2013-03-10 00:30:00,55.4,55.4,29.78,ESE,119,3.1,5.4,100,0.75,,,0.31,VWS V13.01,2013-03-10 06:30:00,
2013-03-10 00:35:00,55.4,55.4,29.78,ESE,116,0.0,0.0,100,0.63,,,0.31,VWS V13.01,2013-03-10 06:35:00,
2013-03-10 00:40:00,55.4,55.4,29.78,NNE,25,2.2,2.2,100,0.51,,,0.35,VWS V13.01,2013-03-10 06:40:00,
2013-03-10 00:45:00,55.4,55.4,29.78,NNE,25,0.0,0.0,100,0.51,,,0.35,VWS V13.01,2013-03-10 06:45:00,
2013-03-10 00:50:00,55.4,55.4,29.78,NNE,25,2.7,2.7,100,0.47,,,0.35,VWS V13.01,2013-03-10 06:50:00,
2013-03-10 00:55:00,55.2,55.2,29.78,NE,42,3.1,3.1,100,0.43,,,0.35,VWS V13.01,2013-03-10 06:55:00,
2013-03-10 00:59:00,54.8,54.8,29.75,North,356,3.6,3.6,100,0.12,,,0.47,VWS V13.01,2013-03-10 06:59:00,
2013-03-10 01:00:00,55.2,55.2,29.78,ENE,59,2.7,2.7,100,0.39,,,0.35,VWS V13.01,2013-03-10 07:00:00,
2013-03-10 01:05:00,55.2,55.2,29.78,ENE,59,2.7,3.1,100,0.35,,,0.39,VWS V13.01,2013-03-10 07:05:00,
2013-03-10 01:10:00,55.0,55.0,29.78,East,87,0.0,2.7,100,0.35,,,0.39,VWS V13.01,2013-03-10 07:10:00,
2013-03-10 01:15:00,55.0,55.0,29.75,East,90,3.1,4.0,100,0.24,,,0.39,VWS V13.01,2013-03-10 07:15:00,
2013-03-10 01:20:00,55.2,55.2,29.75,NNE,30,2.7,3.1,100,0.16,,,0.39,VWS V13.01,2013-03-10 07:20:00,
2013-03-10 01:25:00,55.0,55.0,29.75,NNE,30,3.1,3.1,100,0.12,,,0.39,VWS V13.01,2013-03-10 07:25:00,
2013-03-10 01:30:00,55.0,55.0,29.75,NNE,21,3.6,4.0,100,0.12,,,0.43,VWS V13.01,2013-03-10 07:30:00,
2013-03-10 01:35:00,54.8,54.8,29.75,ENE,59,2.2,2.7,100,0.12,,,0.43,VWS V13.01,2013-03-10 07:35:00,
2013-03-10 01:40:00,54.8,54.8,29.75,NNE,24,3.1,4.0,100,0.12,,,0.43,VWS V13.01,2013-03-10 07:40:00,
2013-03-10 01:45:00,54.8,54.8,29.72,NE,43,0.0,2.2,100,0.08,,,0.43,VWS V13.01,2013-03-10 07:45:00,
2013-03-10 01:50:00,54.8,54.8,29.72,ESE,112,0.0,0.0,100,0.08,,,0.43,VWS V13.01,2013-03-10 07:50:00,
2013-03-10 01:55:00,54.8,54.8,29.72,ENE,67,0.0,0.0,100,0.08,,,0.43,VWS V13.01,2013-03-10 07:55:00,
2013-03-10 03:00:00,54.8,54.8,29.75,NNE,28,2.2,2.2,100,0.12,,,0.47,VWS V13.01,2013-03-10 08:00:00,
2013-03-10 03:05:00,54.8,54.8,29.75,North,357,0.0,0.0,100,0.08,,,0.47,VWS V13.01,2013-03-10 08:05:00,
2013-03-10 03:10:00,54.8,54.8,29.75,NNE,27,0.0,2.7,100,0.08,,,0.47,VWS V13.01,2013-03-10 08:10:00,
2013-03-10 03:15:00,54.7,54.7,29.72,NNE,27,0.0,0.0,100,0.08,,,0.47,VWS V13.01,2013-03-10 08:15:00,
2013-03-10 03:19:00,54.7,54.7,29.72,NE,48,2.7,3.1,100,0.08,,,0.47,VWS V13.01,2013-03-10 08:19:00,
2013-03-10 03:24:00,54.7,54.7,29.72,NE,56,2.2,2.7,100,0.08,,,0.47,VWS V13.01,2013-03-10 08:24:00,
2013-03-10 03:29:00,54.7,54.7,29.72,NE,41,0.0,0.0,100,0.08,,,0.47,VWS V13.01,2013-03-10 08:29:00,
2013-03-10 03:34:00,54.7,54.7,29.72,NNE,29,0.0,0.0,100,0.04,,,0.47,VWS V13.01,2013-03-10 08:34:00,
2013-03-10 03:39:00,54.7,54.7,29.72,NNE,29,0.0,0.0,100,0.04,,,0.47,VWS V13.01,2013-03-10 08:39:00,
2013-03-10 03:44:00,54.7,54.7,29.72,NNE,29,0.0,0.0,100,0.04,,,0.47,VWS V13.01,2013-03-10 08:44:00,
2013-03-10 03:49:00,54.7,54.7,29.72,NNE,29,0.0,0.0,100,0.04,,,0.47,VWS V13.01,2013-03-10 08:49:00,
2013-03-10 03:54:00,54.8,54.8,29.72,ENE,62,0.0,0.0,100,0.08,,,0.51,VWS V13.01,2013-03-10 08:54:00,
2013-03-10 03:59:00,54.8,54.8,29.72,ENE,62,0.0,0.0,100,0.04,,,0.51,VWS V13.01,2013-03-10 08:59:00,
2013-03-10 04:04:00,54.8,54.8,29.72,ENE,64,0.0,0.0,100,0.04,,,0.51,VWS V13.01,2013-03-10 09:04:00,
2013-03-10 04:09:00,54.8,54.8,29.72,ENE,64,0.0,0.0,100,0.04,,,0.51,VWS V13.01,2013-03-10 09:09:00,
2013-03-10 04:14:00,54.8,54.8,29.72,ENE,64,0.0,0.0,100,0.04,,,0.51,VWS V13.01,2013-03-10 09:14:00,
2013-03-10 04:19:00,54.7,54.7,29.72,NNW,342,0.0,0.0,100,0.08,,,0.55,VWS V13.01,2013-03-10 09:19:00,
2013-03-10 04:24:00,54.7,54.7,29.72,SW,236,5.4,5.8,100,0.08,,,0.55,VWS V13.01,2013-03-10 09:24:00,
2013-03-10 04:29:00,54.5,54.5,29.72,NNE,27,3.1,3.1,100,0.12,,,0.59,VWS V13.01,2013-03-10 09:29:00,
2013-03-10 04:34:00,54.5,54.5,29.72,NE,48,0.0,0.0,100,0.16,,,0.63,VWS V13.01,2013-03-10 09:34:00,
2013-03-10 04:39:00,54.5,54.5,29.72,SSE,157,3.1,3.1,100,0.16,,,0.67,VWS V13.01,2013-03-10 09:39:00,
2013-03-10 04:44:00,54.5,54.5,29.72,SSE,163,3.1,3.1,100,0.20,,,0.67,VWS V13.01,2013-03-10 09:44:00,
2013-03-10 04:49:00,54.7,54.7,29.72,East,87,4.0,4.9,100,0.24,,,0.71,VWS V13.01,2013-03-10 09:49:00,
2013-03-10 04:54:00,54.5,54.5,29.72,East,82,2.7,3.1,100,0.24,,,0.75,VWS V13.01,2013-03-10 09:54:00,
2013-03-10 04:59:00,54.5,54.5,29.69,SE,130,2.2,2.7,100,0.24,,,0.75,VWS V13.01,2013-03-10 09:59:00,
2013-03-10 05:04:00,54.5,54.5,29.69,SSE,147,3.1,3.1,100,0.28,,,0.79,VWS V13.01,2013-03-10 10:04:00,
2013-03-10 05:09:00,54.5,54.5,29.69,SSE,161,2.7,2.7,100,0.28,,,0.79,VWS V13.01,2013-03-10 10:09:00,
2013-03-10 05:14:00,54.5,54.5,29.72,South,187,3.6,3.6,100,0.35,,,0.87,VWS V13.01,2013-03-10 10:14:00,
2013-03-10 05:19:00,54.5,54.5,29.72,East,95,0.0,0.0,100,0.31,,,0.87,VWS V13.01,2013-03-10 10:19:00,
2013-03-10 05:24:00,54.3,54.3,29.72,South,184,2.7,2.7,100,0.35,,,0.91,VWS V13.01,2013-03-10 10:24:00,
2013-03-10 05:29:00,54.3,54.3,29.69,South,173,2.7,2.7,100,0.35,,,0.91,VWS V13.01,2013-03-10 10:29:00,
2013-03-10 05:34:00,54.1,54.1,29.69,SSW,192,3.6,3.6,100,0.28,,,0.91,VWS V13.01,2013-03-10 10:34:00,
2013-03-10 05:39:00,54.1,54.1,29.69,South,172,0.0,0.0,100,0.31,,,0.94,VWS V13.01,2013-03-10 10:39:00,
2013-03-10 05:44:00,54.1,54.1,29.69,South,183,0.0,0.0,100,0.28,,,0.94,VWS V13.01,2013-03-10 10:44:00,
2013-03-10 05:49:00,54.1,54.1,29.69,SW,214,0.0,0.0,100,0.28,,,0.98,VWS V13.01,2013-03-10 10:49:00,
2013-03-10 05:54:00,53.9,53.9,29.69,NNW,329,0.0,0.0,100,0.24,,,0.98,VWS V13.01,2013-03-10 10:54:00,
2013-03-10 05:59:00,53.6,53.6,29.69,SSW,200,0.0,0.0,100,0.24,,,0.98,VWS V13.01,2013-03-10 10:59:00,
2013-03-10 06:04:00,53.4,53.4,29.69,SSW,200,0.0,0.0,100,0.24,,,1.02,VWS V13.01,2013-03-10 11:04:00,
2013-03-10 06:09:00,53.0,53.0,29.69,SSW,210,3.1,4.0,100,0.24,,,1.02,VWS V13.01,2013-03-10 11:09:00,
2013-03-10 06:14:00,52.9,52.9,29.69,WSW,257,0.0,0.0,100,0.24,,,1.06,VWS V13.01,2013-03-10 11:14:00,
2013-03-10 06:19:00,52.7,52.7,29.69,WSW,242,2.7,2.7,100,0.20,,,1.06,VWS V13.01,2013-03-10 11:19:00,
2013-03-10 06:24:00,52.7,52.7,29.69,West,259,2.2,2.2,100,0.20,,,1.10,VWS V13.01,2013-03-10 11:24:00,
2013-03-10 06:29:00,52.5,52.5,29.69,WSW,252,3.6,4.0,100,0.24,,,1.14,VWS V13.01,2013-03-10 11:29:00,
2013-03-10 06:34:00,52.5,52.5,29.69,WSW,238,4.0,5.8,100,0.24,,,1.14,VWS V13.01,2013-03-10 11:34:00,
2013-03-10 06:39:00,52.5,52.5,29.69,West,267,4.0,4.0,100,0.20,,,1.14,VWS V13.01,2013-03-10 11:39:00,
2013-03-10 06:44:00,52.5,52.5,29.69,West,262,0.0,0.0,100,0.24,,,1.18,VWS V13.01,2013-03-10 11:44:00,
2013-03-10 06:49:00,52.5,52.5,29.69,SW,223,2.7,4.0,100,0.20,,,1.18,VWS V13.01,2013-03-10 11:49:00,
2013-03-10 06:54:00,52.5,52.5,29.69,WSW,248,4.0,4.0,100,0.24,,,1.22,VWS V13.01,2013-03-10 11:54:00,
2013-03-10 06:59:00,52.7,52.7,29.69,West,271,5.4,5.8,100,0.24,,,1.22,VWS V13.01,2013-03-10 11:59:00,
2013-03-10 07:04:00,52.5,52.5,29.69,NW,316,3.6,5.4,100,0.28,,,1.26,VWS V13.01,2013-03-10 12:04:00,
2013-03-10 07:09:00,52.5,52.5,29.69,West,264,2.2,4.9,100,0.24,,,1.26,VWS V13.01,2013-03-10 12:09:00,
2013-03-10 07:14:00,52.5,52.5,29.69,WSW,242,4.9,4.9,100,0.24,,,1.26,VWS V13.01,2013-03-10 12:14:00,
2013-03-10 07:19:00,52.5,52.5,29.69,WSW,253,3.6,3.6,100,0.20,,,1.26,VWS V13.01,2013-03-10 12:19:00,
2013-03-10 07:24:00,52.5,52.5,29.69,West,262,4.9,6.3,100,0.16,,,1.26,VWS V13.01,2013-03-10 12:24:00,
2013-03-10 07:29:00,52.1,52.1,29.69,SW,226,5.8,5.8,100,0.20,,,1.30,VWS V13.01,2013-03-10 12:29:00,
2013-03-10 07:34:00,51.6,51.6,29.69,West,273,8.3,8.3,100,0.16,,,1.30,VWS V13.01,2013-03-10 12:34:00,
2013-03-10 07:39:00,50.9,50.9,29.69,West,262,10.1,13.2,100,0.20,,,1.34,VWS V13.01,2013-03-10 12:39:00,
2013-03-10 07:44:00,51.1,51.1,29.63,West,264,4.9,4.9,100,0.16,,,1.34,VWS V13.01,2013-03-10 12:44:00,
2013-03-10 07:49:00,50.7,50.7,29.63,WNW,297,5.4,7.2,100,0.16,,,1.34,VWS V13.01,2013-03-10 12:49:00,
2013-03-10 07:54:00,50.7,50.4,29.63,SW,234,8.1,8.1,99,0.12,,,1.34,VWS V13.01,2013-03-10 12:54:00,
2013-03-10 07:59:00,50.7,50.4,29.72,WSW,242,7.6,7.6,99,0.12,,,1.34,VWS V13.01,2013-03-10 12:59:00,
2013-03-10 08:04:00,50.5,50.2,29.72,SSW,212,10.5,10.5,99,0.08,,,1.34,VWS V13.01,2013-03-10 13:04:00,
2013-03-10 08:09:00,50.7,50.7,29.72,SW,218,10.5,12.3,100,0.12,,,1.38,VWS V13.01,2013-03-10 13:09:00,
2013-03-10 08:14:00,50.7,50.7,29.80,WSW,243,10.1,12.8,100,0.16,,,1.42,VWS V13.01,2013-03-10 13:14:00,
2013-03-10 08:19:00,50.5,50.5,29.80,SW,233,5.8,5.8,100,0.20,,,1.46,VWS V13.01,2013-03-10 13:19:00,
2013-03-10 08:24:00,50.3,50.3,29.80,West,265,5.4,5.4,100,0.20,,,1.46,VWS V13.01,2013-03-10 13:24:00,
2013-03-10 08:29:00,50.2,50.2,29.75,West,278,2.2,3.1,100,0.16,,,1.46,VWS V13.01,2013-03-10 13:29:00,
2013-03-10 08:34:00,50.2,50.2,29.75,WNW,299,2.7,3.1,100,0.16,,,1.46,VWS V13.01,2013-03-10 13:34:00,
2013-03-10 08:39:00,50.0,50.0,29.75,WSW,250,4.0,4.0,100,0.20,,,1.50,VWS V13.01,2013-03-10 13:39:00,
2013-03-10 08:44:00,50.0,50.0,29.78,WSW,248,2.7,2.7,100,0.16,,,1.50,VWS V13.01,2013-03-10 13:44:00,
2013-03-10 08:49:00,50.0,50.0,29.78,West,273,0.0,2.7,100,0.16,,,1.50,VWS V13.01,2013-03-10 13:49:00,
2013-03-10 08:54:00,50.0,50.0,29.78,West,272,0.0,3.1,100,0.20,,,1.54,VWS V13.01,2013-03-10 13:54:00,
2013-03-10 08:59:00,50.0,50.0,29.75,WSW,254,0.0,2.7,100,0.20,,,1.54,VWS V13.01,2013-03-10 13:59:00,
2013-03-10 09:04:00,50.0,50.0,29.75,North,350,2.2,2.7,100,0.20,,,1.54,VWS V13.01,2013-03-10 14:04:00,
2013-03-10 09:09:00,50.0,50.0,29.75,North,360,0.0,0.0,100,0.16,,,1.54,VWS V13.01,2013-03-10 14:09:00,
2013-03-10 09:14:00,50.0,50.0,29.72,North,360,0.0,0.0,100,0.12,,,1.54,VWS V13.01,2013-03-10 14:14:00,
2013-03-10 09:19:00,50.0,50.0,29.72,NNE,15,2.7,2.7,100,0.08,,,1.54,VWS V13.01,2013-03-10 14:19:00,
2013-03-10 09:24:00,49.8,49.8,29.72,NNE,21,0.0,0.0,100,0.12,,,1.57,VWS V13.01,2013-03-10 14:24:00,
2013-03-10 09:29:00,49.8,49.8,29.75,SSW,193,2.2,2.2,100,0.12,,,1.57,VWS V13.01,2013-03-10 14:29:00,
2013-03-10 09:34:00,49.8,49.8,29.75,SSW,194,2.7,2.7,100,0.12,,,1.57,VWS V13.01,2013-03-10 14:34:00,
2013-03-10 09:39:00,49.6,49.6,29.75,South,178,0.0,3.6,100,0.08,,,1.57,VWS V13.01,2013-03-10 14:39:00,
2013-03-10 09:44:00,49.6,49.6,29.75,East,88,0.0,3.1,100,0.16,,,1.65,VWS V13.01,2013-03-10 14:44:00,
2013-03-10 09:49:00,49.6,49.6,29.75,ENE,76,0.0,0.0,100,0.16,,,1.65,VWS V13.01,2013-03-10 14:49:00,
2013-03-10 09:54:00,49.6,49.6,29.75,East,81,0.0,0.0,100,0.16,,,1.69,VWS V13.01,2013-03-10 14:54:00,
2013-03-10 09:59:00,49.8,49.8,29.78,South,170,2.2,2.2,100,0.16,,,1.69,VWS V13.01,2013-03-10 14:59:00,
2013-03-10 10:04:00,49.6,49.6,29.78,SSE,153,2.2,2.7,100,0.16,,,1.69,VWS V13.01,2013-03-10 15:04:00,
2013-03-10 10:09:00,49.8,49.8,29.78,ENE,62,2.7,3.1,100,0.20,,,1.73,VWS V13.01,2013-03-10 15:09:00,
2013-03-10 10:14:00,50.0,50.0,29.72,ENE,64,2.2,3.1,100,0.20,,,1.73,VWS V13.01,2013-03-10 15:14:00,
2013-03-10 10:19:00,49.8,49.8,29.72,East,87,4.9,4.9,100,0.20,,,1.73,VWS V13.01,2013-03-10 15:19:00,
2013-03-10 10:24:00,49.8,49.8,29.72,ENE,62,3.6,4.5,100,0.20,,,1.73,VWS V13.01,2013-03-10 15:24:00,
2013-03-10 10:29:00,49.6,49.6,29.72,NE,43,0.0,0.0,100,0.16,,,1.73,VWS V13.01,2013-03-10 15:29:00,
2013-03-10 10:34:00,49.6,49.6,29.72,East,83,3.6,4.0,100,0.16,,,1.73,VWS V13.01,2013-03-10 15:34:00,
2013-03-10 10:38:00,49.6,49.6,29.72,ENE,64,2.2,2.2,100,0.16,,,1.73,VWS V13.01,2013-03-10 15:38:00,
2013-03-10 10:43:00,49.6,49.6,29.72,East,83,4.9,6.3,100,0.08,,,1.73,VWS V13.01,2013-03-10 15:43:00,
2013-03-10 10:48:00,49.6,49.6,29.72,SE,133,4.0,6.3,100,0.08,,,1.73,VWS V13.01,2013-03-10 15:48:00,
2013-03-10 10:53:00,49.6,49.6,29.72,East,88,4.0,5.4,100,0.12,,,1.77,VWS V13.01,2013-03-10 15:53:00,
2013-03-10 10:58:00,49.4,49.4,29.72,East,93,2.7,3.6,100,0.08,,,1.77,VWS V13.01,2013-03-10 15:58:00,
2013-03-10 11:03:00,49.4,49.4,29.72,ENE,61,4.9,5.4,100,0.08,,,1.77,VWS V13.01,2013-03-10 16:03:00,
2013-03-10 11:08:00,49.4,49.4,29.72,SSE,154,3.1,4.0,100,0.08,,,1.77,VWS V13.01,2013-03-10 16:08:00,
2013-03-10 11:13:00,49.4,49.4,29.72,East,85,4.9,4.9,100,0.04,,,1.77,VWS V13.01,2013-03-10 16:13:00,
2013-03-10 11:18:00,49.4,49.4,29.72,NE,56,3.1,6.3,100,0.04,,,1.77,VWS V13.01,2013-03-10 16:18:00,
2013-03-10 11:23:00,49.4,49.4,29.72,ESE,115,2.2,2.7,100,0.04,,,1.77,VWS V13.01,2013-03-10 16:23:00,
2013-03-10 11:28:00,49.4,49.4,29.72,NNE,16,3.6,3.6,100,0.04,,,1.77,VWS V13.01,2013-03-10 16:28:00,
2013-03-10 11:33:00,49.4,49.4,29.72,East,80,0.0,0.0,100,0.04,,,1.77,VWS V13.01,2013-03-10 16:33:00,
2013-03-10 11:38:00,49.6,49.6,29.72,North,1,3.6,3.6,100,0.04,,,1.77,VWS V13.01,2013-03-10 16:38:00,
2013-03-10 11:43:00,50.2,50.2,29.72,NNW,329,0.0,2.2,100,0.04,,,1.77,VWS V13.01,2013-03-10 16:43:00,
2013-03-10 11:48:00,50.2,50.2,29.72,ENE,68,2.7,3.1,100,0.08,,,1.81,VWS V13.01,2013-03-10 16:48:00,
2013-03-10 11:53:00,50.0,50.0,29.72,East,83,2.7,2.7,100,0.08,,,1.81,VWS V13.01,2013-03-10 16:53:00,
2013-03-10 11:58:00,50.2,50.2,29.72,ENE,61,2.7,2.7,100,0.04,,,1.81,VWS V13.01,2013-03-10 16:58:00,
2013-03-10 12:03:00,50.0,50.0,29.72,East,82,3.1,4.0,100,0.04,,,1.81,VWS V13.01,2013-03-10 17:03:00,
2013-03-10 12:08:00,50.2,50.2,29.72,ESE,115,0.0,0.0,100,0.04,,,1.81,VWS V13.01,2013-03-10 17:08:00,
2013-03-10 12:13:00,50.3,50.3,29.75,South,186,0.0,0.0,100,0.04,,,1.81,VWS V13.01,2013-03-10 17:13:00,
2013-03-10 12:18:00,50.5,50.5,29.75,SW,232,0.0,0.0,100,0.04,,,1.81,VWS V13.01,2013-03-10 17:18:00,
2013-03-10 12:23:00,50.5,50.5,29.75,NW,325,0.0,0.0,100,0.04,,,1.81,VWS V13.01,2013-03-10 17:23:00,
2013-03-10 12:28:00,51.1,51.1,29.75,SE,135,0.0,0.0,100,0.04,,,1.81,VWS V13.01,2013-03-10 17:28:00,
2013-03-10 12:33:00,51.1,51.1,29.75,SE,132,0.0,0.0,100,0.04,,,1.81,VWS V13.01,2013-03-10 17:33:00,
2013-03-10 12:38:00,51.6,51.6,29.75,NNE,25,2.7,3.6,100,0.04,,,1.81,VWS V13.01,2013-03-10 17:38:00,
2013-03-10 12:43:00,51.6,51.6,29.72,SW,219,2.7,2.7,100,0.04,,,1.81,VWS V13.01,2013-03-10 17:43:00,
2013-03-10 12:48:00,51.6,51.6,29.72,SE,132,0.0,0.0,100,0.00,,,1.81,VWS V13.01,2013-03-10 17:48:00,
2013-03-10 12:53:00,51.6,51.6,29.72,South,173,0.0,0.0,100,0.00,,,1.81,VWS V13.01,2013-03-10 17:53:00,
2013-03-10 12:58:00,52.0,52.0,29.75,East,100,0.0,0.0,100,0.00,,,1.81,VWS V13.01,2013-03-10 17:58:00,
2013-03-10 13:03:00,52.5,52.5,29.75,SE,140,4.0,4.0,100,0.00,,,1.81,VWS V13.01,2013-03-10 18:03:00,
2013-03-10 13:08:00,52.7,52.7,29.75,SE,143,2.7,4.0,100,0.00,,,1.81,VWS V13.01,2013-03-10 18:08:00,
2013-03-10 13:13:00,52.9,52.6,29.75,SE,139,4.0,4.0,99,0.00,,,1.81,VWS V13.01,2013-03-10 18:13:00,
2013-03-10 13:18:00,53.0,51.9,29.75,SE,130,6.3,6.3,96,0.00,,,1.81,VWS V13.01,2013-03-10 18:18:00,
2013-03-10 13:23:00,53.2,50.1,29.75,SE,129,4.0,4.5,89,0.00,,,1.81,VWS V13.01,2013-03-10 18:23:00,
2013-03-10 13:28:00,53.6,51.0,29.75,SSE,165,3.6,3.6,91,0.00,,,1.81,VWS V13.01,2013-03-10 18:28:00,
2013-03-10 13:33:00,53.8,50.0,29.75,South,171,5.4,5.4,87,0.00,,,1.81,VWS V13.01,2013-03-10 18:33:00,
2013-03-10 13:38:00,54.1,50.0,29.75,South,188,5.4,5.4,86,0.00,,,1.81,VWS V13.01,2013-03-10 18:38:00,
2013-03-10 13:43:00,54.7,50.2,29.75,South,170,10.5,10.5,85,0.00,,,1.81,VWS V13.01,2013-03-10 18:43:00,
2013-03-10 13:48:00,54.8,48.1,29.75,SE,126,4.0,4.0,78,0.00,,,1.81,VWS V13.01,2013-03-10 18:48:00,
2013-03-10 13:53:00,54.7,47.3,29.75,SSW,199,6.3,6.3,76,0.00,,,1.81,VWS V13.01,2013-03-10 18:53:00,
2013-03-10 13:58:00,54.5,47.1,29.75,SSW,194,6.3,7.6,76,0.00,,,1.81,VWS V13.01,2013-03-10 18:58:00,
2013-03-10 14:03:00,54.8,47.4,29.75,South,176,13.6,13.6,76,0.00,,,1.81,VWS V13.01,2013-03-10 19:03:00,
2013-03-10 14:08:00,55.0,48.0,29.75,SSW,202,11.0,14.5,77,0.00,,,1.81,VWS V13.01,2013-03-10 19:08:00,
2013-03-10 14:13:00,55.4,49.7,29.75,SW,215,11.0,11.0,81,0.00,,,1.81,VWS V13.01,2013-03-10 19:13:00,
2013-03-10 14:18:00,55.6,45.6,29.72,SW,223,11.0,11.0,69,0.00,,,1.81,VWS V13.01,2013-03-10 19:18:00,
2013-03-10 14:23:00,55.6,47.1,29.72,WSW,237,8.1,8.1,73,0.00,,,1.81,VWS V13.01,2013-03-10 19:23:00,
2013-03-10 14:28:00,55.4,45.4,29.72,SW,229,8.3,8.3,69,0.00,,,1.81,VWS V13.01,2013-03-10 19:28:00,
2013-03-10 14:33:00,54.8,44.5,29.75,SSW,211,13.2,15.9,68,0.00,,,1.81,VWS V13.01,2013-03-10 19:33:00,
2013-03-10 14:38:00,54.5,43.8,29.75,SSW,207,12.8,12.8,67,0.00,,,1.81,VWS V13.01,2013-03-10 19:38:00,
2013-03-10 14:43:00,52.7,42.8,29.75,SW,226,20.1,20.1,69,0.00,,,1.81,VWS V13.01,2013-03-10 19:43:00,
2013-03-10 14:48:00,51.1,41.3,29.75,SW,229,15.4,15.4,69,0.00,,,1.81,VWS V13.01,2013-03-10 19:48:00,
2013-03-10 14:53:00,50.9,40.7,29.75,WSW,248,13.2,13.2,68,0.00,,,1.81,VWS V13.01,2013-03-10 19:53:00,
2013-03-10 14:58:00,51.1,39.7,29.75,WSW,243,11.9,14.5,65,0.00,,,1.81,VWS V13.01,2013-03-10 19:58:00,
2013-03-10 15:03:00,51.1,39.3,29.75,SW,231,12.3,15.4,64,0.00,,,1.81,VWS V13.01,2013-03-10 20:03:00,
2013-03-10 15:08:00,51.1,38.9,29.75,WSW,250,17.0,22.8,63,0.00,,,1.81,VWS V13.01,2013-03-10 20:08:00,
2013-03-10 15:13:00,52.1,41.5,29.75,SSW,204,10.5,10.5,67,0.00,,,1.81,VWS V13.01,2013-03-10 20:13:00,
2013-03-10 15:18:00,52.5,39.0,29.78,West,260,15.0,21.5,60,0.00,,,1.81,VWS V13.01,2013-03-10 20:18:00,
2013-03-10 15:23:00,52.0,39.0,29.78,SSW,210,8.7,8.7,61,0.00,,,1.81,VWS V13.01,2013-03-10 20:23:00,
2013-03-10 15:28:00,51.2,40.3,29.78,WSW,257,17.9,19.7,66,0.00,,,1.81,VWS V13.01,2013-03-10 20:28:00,
2013-03-10 15:33:00,49.4,39.0,29.78,WSW,245,24.2,25.1,67,0.00,,,1.81,VWS V13.01,2013-03-10 20:33:00,
2013-03-10 15:38:00,48.7,37.9,29.78,SW,232,12.8,16.3,66,0.00,,,1.81,VWS V13.01,2013-03-10 20:38:00,
2013-03-10 15:43:00,48.5,36.5,29.78,SW,231,24.2,24.2,63,0.00,,,1.81,VWS V13.01,2013-03-10 20:43:00,
2013-03-10 15:48:00,48.5,36.5,29.78,SW,233,15.0,17.9,63,0.00,,,1.81,VWS V13.01,2013-03-10 20:48:00,
2013-03-10 15:53:00,48.2,36.6,29.78,SW,229,15.9,23.7,64,0.00,,,1.81,VWS V13.01,2013-03-10 20:53:00,
2013-03-10 15:58:00,48.0,36.0,29.78,West,260,20.6,23.7,63,0.00,,,1.81,VWS V13.01,2013-03-10 20:58:00,
2013-03-10 16:03:00,46.9,35.4,29.78,SW,222,19.2,19.2,64,0.00,,,1.81,VWS V13.01,2013-03-10 21:03:00,
2013-03-10 16:08:00,46.7,35.6,29.78,WSW,245,11.0,17.9,65,0.00,,,1.81,VWS V13.01,2013-03-10 21:08:00,
2013-03-10 16:13:00,46.4,35.7,29.80,SW,232,12.8,19.2,66,0.00,,,1.81,VWS V13.01,2013-03-10 21:13:00,
2013-03-10 16:18:00,46.0,35.7,29.80,WSW,255,15.0,19.7,67,0.00,,,1.81,VWS V13.01,2013-03-10 21:18:00,
2013-03-10 16:23:00,45.8,35.5,29.80,SW,227,20.1,20.1,67,0.00,,,1.81,VWS V13.01,2013-03-10 21:23:00,
2013-03-10 16:28:00,45.7,35.7,29.83,West,260,8.3,10.1,68,0.00,,,1.81,VWS V13.01,2013-03-10 21:28:00,
2013-03-10 16:33:00,45.5,35.2,29.83,SW,226,14.1,14.1,67,0.00,,,1.81,VWS V13.01,2013-03-10 21:33:00,
2013-03-10 16:38:00,45.5,35.2,29.83,WSW,256,15.0,16.3,67,0.00,,,1.81,VWS V13.01,2013-03-10 21:38:00,
2013-03-10 16:43:00,45.5,35.2,29.83,WSW,243,9.6,11.0,67,0.00,,,1.81,VWS V13.01,2013-03-10 21:43:00,
2013-03-10 16:48:00,45.3,35.4,29.83,SW,228,11.0,15.4,68,0.00,,,1.81,VWS V13.01,2013-03-10 21:48:00,
2013-03-10 16:53:00,45.3,35.4,29.83,SW,224,12.3,12.3,68,0.00,,,1.81,VWS V13.01,2013-03-10 21:53:00,
2013-03-10 16:58:00,45.3,35.4,29.83,WSW,246,7.6,11.4,68,0.00,,,1.81,VWS V13.01,2013-03-10 21:58:00,
2013-03-10 17:03:00,45.3,35.4,29.83,SW,228,5.8,8.1,68,0.00,,,1.81,VWS V13.01,2013-03-10 22:03:00,
2013-03-10 17:08:00,45.3,35.4,29.83,SW,236,7.6,7.6,68,0.00,,,1.81,VWS V13.01,2013-03-10 22:08:00,
2013-03-10 17:13:00,45.3,35.7,29.83,WSW,250,7.6,8.3,69,0.00,,,1.81,VWS V13.01,2013-03-10 22:13:00,
2013-03-10 17:18:00,45.3,35.7,29.83,SW,233,8.7,8.7,69,0.00,,,1.81,VWS V13.01,2013-03-10 22:18:00,
2013-03-10 17:23:00,44.9,35.0,29.83,SW,222,9.6,12.8,68,0.00,,,1.81,VWS V13.01,2013-03-10 22:23:00,
2013-03-10 17:28:00,44.8,35.2,29.83,WSW,246,13.2,17.9,69,0.00,,,1.81,VWS V13.01,2013-03-10 22:28:00,
2013-03-10 17:33:00,44.6,35.4,29.83,SW,230,12.3,12.3,70,0.00,,,1.81,VWS V13.01,2013-03-10 22:33:00,
2013-03-10 17:38:00,44.6,35.4,29.83,SW,232,10.5,10.5,70,0.00,,,1.81,VWS V13.01,2013-03-10 22:38:00,
2013-03-10 17:43:00,43.9,34.4,29.83,SW,232,16.3,19.7,69,0.00,,,1.81,VWS V13.01,2013-03-10 22:43:00,
2013-03-10 17:48:00,43.7,34.5,29.83,WSW,237,13.2,14.5,70,0.00,,,1.81,VWS V13.01,2013-03-10 22:48:00,
2013-03-10 17:53:00,43.5,34.4,29.83,WSW,256,13.2,13.2,70,0.00,,,1.81,VWS V13.01,2013-03-10 22:53:00,
2013-03-10 17:58:00,43.3,34.2,29.83,WSW,254,12.8,12.8,70,0.00,,,1.81,VWS V13.01,2013-03-10 22:58:00,
2013-03-10 18:03:00,43.3,33.8,29.83,SW,225,12.8,12.8,69,0.00,,,1.81,VWS V13.01,2013-03-10 23:03:00,
2013-03-10 18:08:00,43.3,33.8,29.83,SW,224,11.0,11.0,69,0.00,,,1.81,VWS V13.01,2013-03-10 23:08:00,
2013-03-10 18:13:00,43.1,33.7,29.83,SW,232,12.8,12.8,69,0.00,,,1.81,VWS V13.01,2013-03-10 23:13:00,
2013-03-10 18:18:00,43.0,33.5,29.83,SW,234,13.6,13.6,69,0.00,,,1.81,VWS V13.01,2013-03-10 23:18:00,
2013-03-10 18:23:00,42.8,33.3,29.83,SW,230,9.6,13.2,69,0.00,,,1.81,VWS V13.01,2013-03-10 23:23:00,
2013-03-10 18:28:00,42.8,34.0,29.83,SW,220,8.3,8.3,71,0.00,,,1.81,VWS V13.01,2013-03-10 23:28:00,
2013-03-10 18:33:00,42.8,33.7,29.83,SW,231,10.1,10.1,70,0.00,,,1.81,VWS V13.01,2013-03-10 23:33:00,
2013-03-10 18:38:00,42.6,33.5,29.83,WSW,246,10.5,13.2,70,0.00,,,1.81,VWS V13.01,2013-03-10 23:38:00,
2013-03-10 18:43:00,42.6,33.9,29.83,SSW,213,12.8,12.8,71,0.00,,,1.81,VWS V13.01,2013-03-10 23:43:00,
2013-03-10 18:48:00,42.4,34.0,29.83,SW,236,13.2,13.6,72,0.00,,,1.81,VWS V13.01,2013-03-10 23:48:00,
2013-03-10 18:53:00,42.2,33.9,29.83,WSW,240,13.6,15.0,72,0.00,,,1.81,VWS V13.01,2013-03-10 23:53:00,
2013-03-10 18:58:00,42.1,34.0,29.86,South,173,7.6,10.5,73,0.00,,,1.81,VWS V13.01,2013-03-10 23:58:00,
2013-03-10 19:03:00,42.1,33.7,29.86,SW,229,8.3,11.0,72,0.00,,,1.81,VWS V13.01,2013-03-11 00:03:00,
2013-03-10 19:08:00,41.9,33.5,29.86,WSW,241,10.5,15.0,72,0.00,,,1.81,VWS V13.01,2013-03-11 00:08:00,
2013-03-10 19:13:00,41.9,33.9,29.86,WSW,253,9.2,9.2,73,0.00,,,1.81,VWS V13.01,2013-03-11 00:13:00,
2013-03-10 19:18:00,41.7,34.0,29.86,WSW,251,10.5,10.5,74,0.00,,,1.81,VWS V13.01,2013-03-11 00:18:00,
2013-03-10 19:23:00,41.5,34.2,29.86,WSW,241,11.0,12.3,75,0.00,,,1.81,VWS V13.01,2013-03-11 00:23:00,
2013-03-10 19:28:00,41.0,34.0,29.86,SW,235,11.4,15.0,76,0.00,,,1.81,VWS V13.01,2013-03-11 00:28:00,
2013-03-10 19:33:00,40.8,34.2,29.86,SW,226,10.1,14.1,77,0.00,,,1.81,VWS V13.01,2013-03-11 00:33:00,
2013-03-10 19:38:00,40.8,34.5,29.86,SW,236,11.0,11.0,78,0.00,,,1.81,VWS V13.01,2013-03-11 00:38:00,
2013-03-10 19:43:00,40.6,34.3,29.86,SW,222,10.5,12.8,78,0.00,,,1.81,VWS V13.01,2013-03-11 00:43:00,
2013-03-10 19:48:00,40.6,34.6,29.86,SW,233,10.1,10.5,79,0.00,,,1.81,VWS V13.01,2013-03-11 00:48:00,
2013-03-10 19:53:00,40.4,34.5,29.86,SW,227,15.0,15.0,79,0.00,,,1.81,VWS V13.01,2013-03-11 00:53:00,
2013-03-10 19:58:00,40.4,34.5,29.86,SW,229,11.0,11.0,79,0.00,,,1.81,VWS V13.01,2013-03-11 00:58:00,
2013-03-10 20:03:00,40.3,34.0,29.86,WSW,241,15.9,15.9,78,0.00,,,1.81,VWS V13.01,2013-03-11 01:03:00,
2013-03-10 20:08:00,40.3,34.6,29.86,SSW,210,8.7,8.7,80,0.00,,,1.81,VWS V13.01,2013-03-11 01:08:00,
2013-03-10 20:13:00,40.1,34.4,29.86,SW,229,10.1,11.0,80,0.00,,,1.81,VWS V13.01,2013-03-11 01:13:00,
2013-03-10 20:18:00,40.1,34.4,29.86,SW,225,11.0,11.0,80,0.00,,,1.81,VWS V13.01,2013-03-11 01:18:00,
2013-03-10 20:23:00,40.1,34.4,29.86,SW,227,8.1,8.3,80,0.00,,,1.81,VWS V13.01,2013-03-11 01:23:00,
2013-03-10 20:28:00,40.1,34.1,29.86,West,280,10.5,12.8,79,0.00,,,1.81,VWS V13.01,2013-03-11 01:28:00,
2013-03-10 20:33:00,40.1,34.1,29.89,WSW,237,8.1,10.5,79,0.00,,,1.81,VWS V13.01,2013-03-11 01:33:00,
2013-03-10 20:38:00,40.1,34.1,29.89,SW,228,8.1,8.1,79,0.00,,,1.81,VWS V13.01,2013-03-11 01:38:00,
2013-03-10 20:43:00,40.1,33.5,29.89,SW,235,8.3,11.0,77,0.00,,,1.81,VWS V13.01,2013-03-11 01:43:00,
2013-03-10 20:48:00,40.1,33.5,29.89,SW,233,8.3,12.3,77,0.00,,,1.81,VWS V13.01,2013-03-11 01:48:00,
2013-03-10 20:53:00,40.1,32.8,29.89,WSW,244,13.6,13.6,75,0.00,,,1.81,VWS V13.01,2013-03-11 01:53:00,
2013-03-10 20:58:00,39.9,32.0,29.89,West,276,11.9,11.9,73,0.00,,,1.81,VWS V13.01,2013-03-11 01:58:00,
2013-03-10 21:03:00,39.5,30.9,29.89,WSW,243,14.1,14.1,71,0.00,,,1.81,VWS V13.01,2013-03-11 02:03:00,
2013-03-10 21:08:00,39.5,30.9,29.89,WSW,241,13.2,15.4,71,0.00,,,1.81,VWS V13.01,2013-03-11 02:08:00,
2013-03-10 21:13:00,39.2,30.6,29.89,WNW,286,13.2,15.0,71,0.00,,,1.81,VWS V13.01,2013-03-11 02:13:00,
2013-03-10 21:18:00,39.2,30.6,29.89,SW,218,10.5,12.3,71,0.00,,,1.81,VWS V13.01,2013-03-11 02:18:00,
2013-03-10 21:23:00,39.2,30.9,29.89,WSW,242,9.2,13.2,72,0.00,,,1.81,VWS V13.01,2013-03-11 02:23:00,
2013-03-10 21:28:00,39.0,30.8,29.89,West,266,8.3,11.0,72,0.00,,,1.81,VWS V13.01,2013-03-11 02:28:00,
2013-03-10 21:33:00,38.8,30.6,29.89,West,269,15.0,15.0,72,0.00,,,1.81,VWS V13.01,2013-03-11 02:33:00,
2013-03-10 21:38:00,38.8,30.9,29.89,WSW,255,10.1,10.1,73,0.00,,,1.81,VWS V13.01,2013-03-11 02:38:00,
2013-03-10 21:43:00,38.6,30.4,29.89,WSW,239,11.9,14.5,72,0.00,,,1.81,VWS V13.01,2013-03-11 02:43:00,
2013-03-10 21:48:00,38.5,30.2,29.89,SW,226,10.5,10.5,72,0.00,,,1.81,VWS V13.01,2013-03-11 02:48:00,
2013-03-10 21:53:00,38.5,30.2,29.89,WSW,242,10.5,15.4,72,0.00,,,1.81,VWS V13.01,2013-03-11 02:53:00,
2013-03-10 21:58:00,38.3,29.7,29.89,SW,228,15.4,17.9,71,0.00,,,1.81,VWS V13.01,2013-03-11 02:58:00,
2013-03-10 22:03:00,38.3,30.4,29.92,SW,236,8.1,8.7,73,0.00,,,1.81,VWS V13.01,2013-03-11 03:03:00,
2013-03-10 22:08:00,38.1,29.9,29.92,West,266,8.3,13.2,72,0.00,,,1.81,VWS V13.01,2013-03-11 03:08:00,
2013-03-10 22:13:00,37.9,29.4,29.92,SW,234,12.8,17.4,71,0.00,,,1.81,VWS V13.01,2013-03-11 03:13:00,
2013-03-10 22:18:00,37.9,29.7,29.92,West,260,10.5,13.6,72,0.00,,,1.81,VWS V13.01,2013-03-11 03:18:00,
2013-03-10 22:23:00,37.7,29.9,29.92,SSW,210,12.8,12.8,73,0.00,,,1.81,VWS V13.01,2013-03-11 03:23:00,
2013-03-10 22:28:00,37.6,29.7,29.92,SW,223,12.8,15.9,73,0.00,,,1.81,VWS V13.01,2013-03-11 03:28:00,
2013-03-10 22:33:00,37.4,29.9,29.92,SW,233,8.3,12.8,74,0.00,,,1.81,VWS V13.01,2013-03-11 03:33:00,
2013-03-10 22:38:00,37.4,29.9,29.92,West,263,9.6,11.4,74,0.00,,,1.81,VWS V13.01,2013-03-11 03:38:00,
2013-03-10 22:43:00,37.2,29.7,29.92,WSW,242,8.3,12.8,74,0.00,,,1.81,VWS V13.01,2013-03-11 03:43:00,
2013-03-10 22:48:00,37.0,29.9,29.92,WSW,253,7.6,10.1,75,0.00,,,1.81,VWS V13.01,2013-03-11 03:48:00,
2013-03-10 22:53:00,36.8,29.3,29.92,West,269,13.2,13.6,74,0.00,,,1.81,VWS V13.01,2013-03-11 03:53:00,
2013-03-10 22:58:00,36.8,29.7,29.92,SW,230,10.5,15.0,75,0.00,,,1.81,VWS V13.01,2013-03-11 03:58:00,
2013-03-10 23:00:00,36.8,29.3,29.92,WSW,252,8.7,10.5,74,0.00,,,1.81,VWS V13.01,2013-03-11 04:00:00,
2013-03-10 23:05:00,36.7,29.5,29.92,WSW,245,7.6,8.7,75,0.00,,,1.81,VWS V13.01,2013-03-11 04:05:00,
2013-03-10 23:10:00,36.5,28.7,29.92,WSW,240,10.5,12.8,73,0.00,,,1.81,VWS V13.01,2013-03-11 04:10:00,
2013-03-10 23:15:00,36.1,28.6,29.92,West,267,13.2,18.8,74,0.00,,,1.81,VWS V13.01,2013-03-11 04:15:00,
2013-03-10 23:20:00,35.9,28.5,29.92,SW,231,14.5,16.8,74,0.00,,,1.81,VWS V13.01,2013-03-11 04:20:00,
2013-03-10 23:25:00,35.6,27.8,29.92,SW,236,10.5,10.5,73,0.00,,,1.81,VWS V13.01,2013-03-11 04:25:00,
2013-03-10 23:30:00,35.6,27.8,29.92,WSW,240,12.8,12.8,73,0.00,,,1.81,VWS V13.01,2013-03-11 04:30:00,
2013-03-10 23:35:00,35.4,27.6,29.92,West,261,11.0,15.4,73,0.00,,,1.81,VWS V13.01,2013-03-11 04:35:00,
2013-03-10 23:40:00,35.4,27.6,29.92,WSW,239,11.0,17.0,73,0.00,,,1.81,VWS V13.01,2013-03-11 04:40:00,
2013-03-10 23:45:00,35.2,27.5,29.92,WSW,239,13.2,17.4,73,0.00,,,1.81,VWS V13.01,2013-03-11 04:45:00,
2013-03-10 23:50:00,35.0,27.6,29.92,WSW,258,10.5,15.4,74,0.00,,,1.81,VWS V13.01,2013-03-11 04:50:00,
2013-03-10 23:55:00,34.9,27.4,29.92,SW,229,8.7,12.8,74,0.00,,,1.81,VWS V13.01,2013-03-11 04:55:00,